SUR4729 MUBY-MWCR
Flight info
| Callsign | SUR4729 |
|---|---|
| Flight time | 1h 34m |
| Altitude | 20000 |
| Route | GASPA L795 GUBAK L212 XOTIK/N0277F070 R630 KANEX GORAN3 |
| Aircraft | AT76/M-SDFGIRY/S |
Departure
| Time | 2026-04-27 01:12 |
|---|---|
| Airport | Carlos Manuel de Cespedes Airport (MUBY) |
Arrival
| Time | 2026-04-27 02:46 |
|---|---|
| Airport | Owen Roberts International Airport (MWCR) |
| Time | Latitude | Longitude | Altitude | Speed | Heading |
|---|---|---|---|---|---|
| 2026-04-27 00:43 | 20.39404 | -76.62266 | 179 ft | 0 kts | 251° |
| 2026-04-27 01:04 | 20.39403 | -76.62269 | 182 ft | 2 kts | 251° |
| 2026-04-27 01:04 | 20.39408 | -76.62254 | 188 ft | 2 kts | 251° |
| 2026-04-27 01:04 | 20.39412 | -76.62239 | 194 ft | 2 kts | 273° |
| 2026-04-27 01:05 | 20.39407 | -76.62225 | 183 ft | 1 kts | 325° |
| 2026-04-27 01:05 | 20.39419 | -76.62229 | 195 ft | 2 kts | 347° |
| 2026-04-27 01:05 | 20.39426 | -76.62231 | 183 ft | 0 kts | 341° |
| 2026-04-27 01:06 | 20.39429 | -76.62233 | 183 ft | 2 kts | 341° |
| 2026-04-27 01:06 | 20.39457 | -76.62249 | 183 ft | 7 kts | 329° |
| 2026-04-27 01:06 | 20.39507 | -76.62271 | 183 ft | 9 kts | 340° |
| 2026-04-27 01:06 | 20.39555 | -76.62297 | 182 ft | 9 kts | 321° |
| 2026-04-27 01:07 | 20.39565 | -76.62361 | 189 ft | 11 kts | 254° |
| 2026-04-27 01:07 | 20.39535 | -76.62448 | 178 ft | 13 kts | 249° |
| 2026-04-27 01:07 | 20.39503 | -76.62536 | 176 ft | 14 kts | 248° |
| 2026-04-27 01:07 | 20.39463 | -76.62642 | 175 ft | 16 kts | 249° |
| 2026-04-27 01:08 | 20.39422 | -76.62759 | 172 ft | 17 kts | 246° |
| 2026-04-27 01:08 | 20.39376 | -76.62871 | 172 ft | 16 kts | 248° |
| 2026-04-27 01:08 | 20.39324 | -76.62964 | 170 ft | 11 kts | 228° |
| 2026-04-27 01:08 | 20.39328 | -76.62983 | 171 ft | 1 kts | 339° |
| 2026-04-27 01:09 | 20.39340 | -76.62979 | 171 ft | 3 kts | 31° |
| 2026-04-27 01:09 | 20.39347 | -76.62956 | 171 ft | 5 kts | 72° |
| 2026-04-27 01:09 | 20.39348 | -76.62951 | 171 ft | 0 kts | 71° |
| 2026-04-27 01:11 | 20.39366 | -76.62897 | 172 ft | 31 kts | 69° |
| 2026-04-27 01:11 | 20.39532 | -76.62450 | 189 ft | 95 kts | 69° |
| 2026-04-27 01:11 | 20.39840 | -76.61628 | 196 ft | 140 kts | 68° |
| 2026-04-27 01:11 | 20.40222 | -76.60612 | 507 ft | 154 kts | 67° |
| 2026-04-27 01:12 | 20.40712 | -76.59547 | 933 ft | 163 kts | 56° |
| 2026-04-27 01:12 | 20.41511 | -76.58617 | 1376 ft | 177 kts | 35° |
| 2026-04-27 01:12 | 20.42644 | -76.58077 | 2019 ft | 178 kts | 8° |
| 2026-04-27 01:12 | 20.43724 | -76.58378 | 2871 ft | 165 kts | 313° |
| 2026-04-27 01:13 | 20.44080 | -76.59541 | 3372 ft | 171 kts | 264° |
| 2026-04-27 01:13 | 20.43614 | -76.60676 | 4026 ft | 169 kts | 232° |
| 2026-04-27 01:13 | 20.42911 | -76.61708 | 4374 ft | 181 kts | 243° |
| 2026-04-27 01:13 | 20.42583 | -76.63024 | 4795 ft | 186 kts | 269° |
| 2026-04-27 01:14 | 20.42865 | -76.64344 | 5266 ft | 188 kts | 297° |
| 2026-04-27 01:14 | 20.43738 | -76.65447 | 5584 ft | 197 kts | 317° |
| 2026-04-27 01:14 | 20.44750 | -76.66393 | 6192 ft | 190 kts | 318° |
| 2026-04-27 01:14 | 20.45801 | -76.67282 | 6547 ft | 198 kts | 321° |
| 2026-04-27 01:15 | 20.46875 | -76.68185 | 7004 ft | 195 kts | 321° |
| 2026-04-27 01:15 | 20.47932 | -76.69034 | 7556 ft | 189 kts | 324° |
| 2026-04-27 01:15 | 20.48986 | -76.69860 | 8034 ft | 188 kts | 322° |
| 2026-04-27 01:15 | 20.50048 | -76.70708 | 8403 ft | 193 kts | 324° |
| 2026-04-27 01:16 | 20.51162 | -76.71558 | 8726 ft | 200 kts | 323° |
| 2026-04-27 01:16 | 20.52304 | -76.72439 | 9043 ft | 205 kts | 323° |
| 2026-04-27 01:16 | 20.53473 | -76.73338 | 9374 ft | 209 kts | 324° |
| 2026-04-27 01:16 | 20.54665 | -76.74252 | 9711 ft | 212 kts | 323° |
| 2026-04-27 01:17 | 20.55856 | -76.75190 | 10032 ft | 214 kts | 323° |
| 2026-04-27 01:17 | 20.57058 | -76.76147 | 10326 ft | 216 kts | 323° |
| 2026-04-27 01:17 | 20.58263 | -76.77108 | 10596 ft | 218 kts | 323° |
| 2026-04-27 01:17 | 20.59493 | -76.78090 | 10838 ft | 222 kts | 322° |
| 2026-04-27 01:18 | 20.60738 | -76.79085 | 11075 ft | 225 kts | 323° |
| 2026-04-27 01:18 | 20.61998 | -76.80094 | 11316 ft | 227 kts | 323° |
| 2026-04-27 01:18 | 20.63269 | -76.81109 | 11560 ft | 229 kts | 323° |
| 2026-04-27 01:18 | 20.64548 | -76.82133 | 11800 ft | 230 kts | 323° |
| 2026-04-27 01:19 | 20.65835 | -76.83163 | 12050 ft | 232 kts | 323° |
| 2026-04-27 01:19 | 20.67128 | -76.84195 | 12288 ft | 232 kts | 323° |
| 2026-04-27 01:19 | 20.68430 | -76.85237 | 12539 ft | 233 kts | 323° |
| 2026-04-27 01:19 | 20.69726 | -76.86275 | 12793 ft | 233 kts | 323° |
| 2026-04-27 01:20 | 20.71022 | -76.87315 | 13040 ft | 233 kts | 323° |
| 2026-04-27 01:20 | 20.72318 | -76.88352 | 13298 ft | 233 kts | 323° |
| 2026-04-27 01:20 | 20.73614 | -76.89388 | 13544 ft | 232 kts | 323° |
| 2026-04-27 01:20 | 20.74901 | -76.90422 | 13796 ft | 232 kts | 323° |
| 2026-04-27 01:21 | 20.76180 | -76.91447 | 13971 ft | 233 kts | 323° |
| 2026-04-27 01:21 | 20.77483 | -76.92490 | 14156 ft | 235 kts | 322° |
| 2026-04-27 01:21 | 20.78791 | -76.93538 | 14340 ft | 235 kts | 322° |
| 2026-04-27 01:21 | 20.80102 | -76.94588 | 14527 ft | 236 kts | 322° |
| 2026-04-27 01:22 | 20.81414 | -76.95640 | 14714 ft | 236 kts | 322° |
| 2026-04-27 01:22 | 20.82722 | -76.96692 | 14897 ft | 236 kts | 322° |
| 2026-04-27 01:22 | 20.84032 | -76.97747 | 15079 ft | 236 kts | 322° |
| 2026-04-27 01:22 | 20.85339 | -76.98801 | 15275 ft | 235 kts | 322° |
| 2026-04-27 01:23 | 20.86646 | -76.99858 | 15466 ft | 235 kts | 321° |
| 2026-04-27 01:23 | 20.87945 | -77.00913 | 15654 ft | 234 kts | 321° |
| 2026-04-27 01:23 | 20.89246 | -77.01962 | 15848 ft | 234 kts | 322° |
| 2026-04-27 01:23 | 20.90547 | -77.03008 | 16044 ft | 233 kts | 321° |
| 2026-04-27 01:24 | 20.91564 | -77.04303 | 16240 ft | 228 kts | 291° |
| 2026-04-27 01:24 | 20.91965 | -77.05932 | 16433 ft | 227 kts | 280° |
| 2026-04-27 01:24 | 20.92190 | -77.07601 | 16635 ft | 227 kts | 278° |
| 2026-04-27 01:24 | 20.92389 | -77.09274 | 16826 ft | 227 kts | 277° |
| 2026-04-27 01:25 | 20.92601 | -77.10941 | 17026 ft | 226 kts | 279° |
| 2026-04-27 01:25 | 20.92845 | -77.12600 | 17230 ft | 226 kts | 279° |
| 2026-04-27 01:25 | 20.93107 | -77.14254 | 17432 ft | 225 kts | 279° |
| 2026-04-27 01:25 | 20.93363 | -77.15900 | 17633 ft | 224 kts | 279° |
| 2026-04-27 01:26 | 20.93618 | -77.17546 | 17842 ft | 224 kts | 279° |
| 2026-04-27 01:26 | 20.93872 | -77.19185 | 18051 ft | 223 kts | 279° |
| 2026-04-27 01:26 | 20.94126 | -77.20820 | 18249 ft | 222 kts | 279° |
| 2026-04-27 01:26 | 20.94380 | -77.22449 | 18439 ft | 221 kts | 279° |
| 2026-04-27 01:27 | 20.94631 | -77.24066 | 18614 ft | 220 kts | 279° |
| 2026-04-27 01:27 | 20.94882 | -77.25681 | 18761 ft | 221 kts | 279° |
| 2026-04-27 01:27 | 20.95134 | -77.27304 | 18894 ft | 221 kts | 279° |
| 2026-04-27 01:27 | 20.95386 | -77.28932 | 19029 ft | 222 kts | 279° |
| 2026-04-27 01:28 | 20.95635 | -77.30541 | 19164 ft | 222 kts | 279° |
| 2026-04-27 01:28 | 20.95888 | -77.32172 | 19302 ft | 222 kts | 279° |
| 2026-04-27 01:28 | 20.96141 | -77.33805 | 19439 ft | 222 kts | 279° |
| 2026-04-27 01:28 | 20.96393 | -77.35433 | 19576 ft | 222 kts | 279° |
| 2026-04-27 01:29 | 20.96645 | -77.37063 | 19715 ft | 222 kts | 279° |
| 2026-04-27 01:29 | 20.96896 | -77.38688 | 19848 ft | 222 kts | 279° |
| 2026-04-27 01:29 | 20.97150 | -77.40327 | 19914 ft | 225 kts | 279° |
| 2026-04-27 01:29 | 20.97407 | -77.41996 | 19951 ft | 229 kts | 279° |
| 2026-04-27 01:30 | 20.97669 | -77.43692 | 19963 ft | 233 kts | 279° |
| 2026-04-27 01:30 | 20.97934 | -77.45409 | 19974 ft | 236 kts | 279° |
| 2026-04-27 01:30 | 20.98203 | -77.47153 | 19974 ft | 239 kts | 279° |
| 2026-04-27 01:30 | 20.98474 | -77.48917 | 19982 ft | 241 kts | 279° |
| 2026-04-27 01:31 | 20.98747 | -77.50695 | 19978 ft | 243 kts | 279° |
| 2026-04-27 01:31 | 20.99022 | -77.52485 | 19982 ft | 245 kts | 279° |
| 2026-04-27 01:31 | 20.99299 | -77.54289 | 19982 ft | 246 kts | 279° |
| 2026-04-27 01:31 | 20.99575 | -77.56100 | 19978 ft | 247 kts | 279° |
| 2026-04-27 01:32 | 20.99858 | -77.57916 | 19983 ft | 248 kts | 279° |
| 2026-04-27 01:32 | 21.00137 | -77.59735 | 19980 ft | 248 kts | 279° |
| 2026-04-27 01:32 | 21.00416 | -77.61563 | 19978 ft | 249 kts | 279° |
| 2026-04-27 01:32 | 21.00696 | -77.63394 | 19984 ft | 250 kts | 279° |
| 2026-04-27 01:33 | 21.00977 | -77.65229 | 19976 ft | 250 kts | 279° |
| 2026-04-27 01:33 | 21.01257 | -77.67064 | 19983 ft | 250 kts | 279° |
| 2026-04-27 01:33 | 21.01538 | -77.68902 | 19973 ft | 250 kts | 279° |
| 2026-04-27 01:33 | 21.01819 | -77.70743 | 19979 ft | 251 kts | 279° |
| 2026-04-27 01:34 | 21.02096 | -77.72561 | 19981 ft | 251 kts | 279° |
| 2026-04-27 01:34 | 21.02376 | -77.74402 | 19981 ft | 251 kts | 279° |
| 2026-04-27 01:34 | 21.02656 | -77.76247 | 19979 ft | 251 kts | 279° |
| 2026-04-27 01:34 | 21.02937 | -77.78092 | 19975 ft | 251 kts | 279° |
| 2026-04-27 01:35 | 21.03217 | -77.79935 | 19980 ft | 251 kts | 279° |
| 2026-04-27 01:35 | 21.03497 | -77.81778 | 19977 ft | 251 kts | 279° |
| 2026-04-27 01:35 | 21.03778 | -77.83626 | 19975 ft | 251 kts | 279° |
| 2026-04-27 01:35 | 21.04059 | -77.85471 | 19972 ft | 251 kts | 279° |
| 2026-04-27 01:36 | 21.04338 | -77.87319 | 19978 ft | 252 kts | 279° |
| 2026-04-27 01:36 | 21.04618 | -77.89171 | 19969 ft | 252 kts | 279° |
| 2026-04-27 01:36 | 21.04898 | -77.91022 | 19974 ft | 252 kts | 279° |
| 2026-04-27 01:36 | 21.05178 | -77.92874 | 19973 ft | 252 kts | 279° |
| 2026-04-27 01:37 | 21.05457 | -77.94725 | 19975 ft | 252 kts | 279° |
| 2026-04-27 01:37 | 21.05737 | -77.96577 | 19974 ft | 252 kts | 279° |
| 2026-04-27 01:37 | 21.06016 | -77.98422 | 19973 ft | 252 kts | 279° |
| 2026-04-27 01:37 | 21.06296 | -78.00275 | 19973 ft | 252 kts | 279° |
| 2026-04-27 01:38 | 21.06573 | -78.02121 | 19976 ft | 252 kts | 279° |
| 2026-04-27 01:38 | 21.06852 | -78.03969 | 19975 ft | 252 kts | 279° |
| 2026-04-27 01:38 | 21.07130 | -78.05819 | 19977 ft | 252 kts | 279° |
| 2026-04-27 01:38 | 21.07407 | -78.07668 | 19977 ft | 252 kts | 279° |
| 2026-04-27 01:39 | 21.07685 | -78.09518 | 19969 ft | 252 kts | 279° |
| 2026-04-27 01:39 | 21.07964 | -78.11370 | 19976 ft | 252 kts | 279° |
| 2026-04-27 01:39 | 21.08241 | -78.13221 | 19976 ft | 252 kts | 279° |
| 2026-04-27 01:39 | 21.08520 | -78.15074 | 19967 ft | 252 kts | 279° |
| 2026-04-27 01:40 | 21.08796 | -78.16925 | 19971 ft | 252 kts | 279° |
| 2026-04-27 01:40 | 21.09074 | -78.18778 | 19975 ft | 252 kts | 279° |
| 2026-04-27 01:40 | 21.09352 | -78.20631 | 19972 ft | 252 kts | 279° |
| 2026-04-27 01:40 | 21.09626 | -78.22484 | 19970 ft | 252 kts | 279° |
| 2026-04-27 01:41 | 21.09900 | -78.24338 | 19972 ft | 252 kts | 279° |
| 2026-04-27 01:41 | 21.10085 | -78.25565 | 19972 ft | 252 kts | 279° |
| 2026-04-27 01:41 | 21.10364 | -78.27420 | 19970 ft | 252 kts | 279° |
| 2026-04-27 01:41 | 21.10642 | -78.29272 | 19975 ft | 252 kts | 279° |
| 2026-04-27 01:42 | 21.11007 | -78.31728 | 19973 ft | 252 kts | 279° |
| 2026-04-27 01:42 | 21.11282 | -78.33582 | 19970 ft | 253 kts | 279° |
| 2026-04-27 01:42 | 21.11556 | -78.35442 | 19971 ft | 252 kts | 279° |
| 2026-04-27 01:42 | 21.11746 | -78.36695 | 19974 ft | 253 kts | 279° |
| 2026-04-27 01:43 | 21.12021 | -78.38559 | 19963 ft | 253 kts | 279° |
| 2026-04-27 01:43 | 21.12297 | -78.40417 | 19971 ft | 253 kts | 279° |
| 2026-04-27 01:43 | 21.12575 | -78.42284 | 19971 ft | 254 kts | 279° |
| 2026-04-27 01:43 | 21.12851 | -78.44153 | 19969 ft | 254 kts | 279° |
| 2026-04-27 01:44 | 21.13124 | -78.45995 | 19968 ft | 254 kts | 279° |
| 2026-04-27 01:44 | 21.13400 | -78.47863 | 19963 ft | 253 kts | 279° |
| 2026-04-27 01:44 | 21.13676 | -78.49728 | 19965 ft | 253 kts | 279° |
| 2026-04-27 01:44 | 21.13955 | -78.51615 | 19973 ft | 253 kts | 279° |
| 2026-04-27 01:45 | 21.14227 | -78.53450 | 19973 ft | 253 kts | 279° |
| 2026-04-27 01:45 | 21.14502 | -78.55310 | 19968 ft | 253 kts | 279° |
| 2026-04-27 01:45 | 21.14776 | -78.57168 | 19972 ft | 253 kts | 279° |
| 2026-04-27 01:45 | 21.15049 | -78.59025 | 19976 ft | 253 kts | 279° |
| 2026-04-27 01:46 | 21.15321 | -78.60884 | 19973 ft | 253 kts | 279° |
| 2026-04-27 01:46 | 21.15602 | -78.62742 | 19972 ft | 252 kts | 279° |
| 2026-04-27 01:46 | 21.15902 | -78.64593 | 19975 ft | 252 kts | 280° |
| 2026-04-27 01:46 | 21.16208 | -78.66446 | 19974 ft | 252 kts | 280° |
| 2026-04-27 01:47 | 21.16512 | -78.68294 | 19968 ft | 252 kts | 280° |
| 2026-04-27 01:47 | 21.16816 | -78.70147 | 19978 ft | 252 kts | 280° |
| 2026-04-27 01:47 | 21.17121 | -78.72004 | 19974 ft | 252 kts | 280° |
| 2026-04-27 01:47 | 21.17424 | -78.73856 | 19972 ft | 252 kts | 280° |
| 2026-04-27 01:48 | 21.17727 | -78.75711 | 19973 ft | 252 kts | 280° |
| 2026-04-27 01:48 | 21.18030 | -78.77563 | 19975 ft | 252 kts | 280° |
| 2026-04-27 01:48 | 21.18332 | -78.79415 | 19976 ft | 252 kts | 280° |
| 2026-04-27 01:48 | 21.18634 | -78.81268 | 19974 ft | 252 kts | 280° |
| 2026-04-27 01:49 | 21.18936 | -78.83122 | 19973 ft | 252 kts | 280° |
| 2026-04-27 01:49 | 21.19238 | -78.84973 | 19973 ft | 253 kts | 280° |
| 2026-04-27 01:49 | 21.19536 | -78.86804 | 19977 ft | 253 kts | 280° |
| 2026-04-27 01:49 | 21.19835 | -78.88660 | 19967 ft | 253 kts | 280° |
| 2026-04-27 01:50 | 21.20132 | -78.90516 | 19974 ft | 253 kts | 279° |
| 2026-04-27 01:50 | 21.20429 | -78.92371 | 19979 ft | 252 kts | 280° |
| 2026-04-27 01:50 | 21.20734 | -78.94223 | 19977 ft | 252 kts | 280° |
| 2026-04-27 01:50 | 21.21036 | -78.96076 | 19973 ft | 252 kts | 280° |
| 2026-04-27 01:51 | 21.21336 | -78.97930 | 19977 ft | 252 kts | 280° |
| 2026-04-27 01:51 | 21.21635 | -78.99780 | 19978 ft | 252 kts | 280° |
| 2026-04-27 01:51 | 21.21934 | -79.01638 | 19974 ft | 252 kts | 280° |
| 2026-04-27 01:51 | 21.22234 | -79.03490 | 19975 ft | 252 kts | 280° |
| 2026-04-27 01:52 | 21.22531 | -79.05344 | 19977 ft | 252 kts | 280° |
| 2026-04-27 01:52 | 21.22829 | -79.07197 | 19975 ft | 252 kts | 280° |
| 2026-04-27 01:52 | 21.23127 | -79.09053 | 19972 ft | 252 kts | 280° |
| 2026-04-27 01:52 | 21.23423 | -79.10907 | 19980 ft | 252 kts | 279° |
| 2026-04-27 01:53 | 21.23720 | -79.12761 | 19973 ft | 252 kts | 280° |
| 2026-04-27 01:53 | 21.24018 | -79.14614 | 19977 ft | 252 kts | 280° |
| 2026-04-27 01:53 | 21.24316 | -79.16466 | 19977 ft | 252 kts | 280° |
| 2026-04-27 01:53 | 21.24612 | -79.18323 | 19972 ft | 252 kts | 279° |
| 2026-04-27 01:54 | 21.24907 | -79.20176 | 19975 ft | 252 kts | 279° |
| 2026-04-27 01:54 | 21.25204 | -79.22031 | 19974 ft | 252 kts | 280° |
| 2026-04-27 01:54 | 21.25500 | -79.23887 | 19971 ft | 252 kts | 280° |
| 2026-04-27 01:54 | 21.25790 | -79.25717 | 19972 ft | 252 kts | 280° |
| 2026-04-27 01:55 | 21.26089 | -79.27596 | 19973 ft | 252 kts | 280° |
| 2026-04-27 01:55 | 21.26380 | -79.29428 | 19974 ft | 252 kts | 280° |
| 2026-04-27 01:55 | 21.26675 | -79.31281 | 19976 ft | 253 kts | 280° |
| 2026-04-27 01:55 | 21.26969 | -79.33136 | 19972 ft | 253 kts | 280° |
| 2026-04-27 01:56 | 21.27559 | -79.36848 | 19972 ft | 253 kts | 280° |
| 2026-04-27 01:56 | 21.27853 | -79.38707 | 19974 ft | 253 kts | 280° |
| 2026-04-27 01:56 | 21.28145 | -79.40563 | 19977 ft | 253 kts | 280° |
| 2026-04-27 01:57 | 21.28440 | -79.42422 | 19972 ft | 253 kts | 279° |
| 2026-04-27 01:57 | 21.28735 | -79.44277 | 19974 ft | 253 kts | 280° |
| 2026-04-27 01:57 | 21.29028 | -79.46133 | 19972 ft | 253 kts | 280° |
| 2026-04-27 01:57 | 21.29318 | -79.47992 | 19972 ft | 252 kts | 279° |
| 2026-04-27 01:58 | 21.29242 | -79.49844 | 19974 ft | 253 kts | 252° |
| 2026-04-27 01:58 | 21.28325 | -79.51453 | 19974 ft | 255 kts | 233° |
| 2026-04-27 01:58 | 21.27079 | -79.52822 | 19974 ft | 258 kts | 225° |
| 2026-04-27 01:58 | 21.25709 | -79.54062 | 19975 ft | 258 kts | 223° |
| 2026-04-27 01:59 | 21.24317 | -79.55284 | 19970 ft | 259 kts | 223° |
| 2026-04-27 01:59 | 21.22937 | -79.56527 | 19974 ft | 259 kts | 224° |
| 2026-04-27 01:59 | 21.21582 | -79.57800 | 19969 ft | 259 kts | 225° |
| 2026-04-27 01:59 | 21.20234 | -79.59087 | 19973 ft | 260 kts | 225° |
| 2026-04-27 02:00 | 21.18880 | -79.60372 | 19972 ft | 260 kts | 224° |
| 2026-04-27 02:00 | 21.17526 | -79.61655 | 19973 ft | 260 kts | 224° |
| 2026-04-27 02:00 | 21.16171 | -79.62939 | 19976 ft | 260 kts | 224° |
| 2026-04-27 02:00 | 21.14810 | -79.64227 | 19973 ft | 260 kts | 225° |
| 2026-04-27 02:01 | 21.13454 | -79.65511 | 19971 ft | 260 kts | 224° |
| 2026-04-27 02:01 | 21.12098 | -79.66794 | 19971 ft | 260 kts | 224° |
| 2026-04-27 02:01 | 21.10737 | -79.68081 | 19975 ft | 260 kts | 225° |
| 2026-04-27 02:01 | 21.09380 | -79.69365 | 19974 ft | 261 kts | 224° |
| 2026-04-27 02:02 | 21.08038 | -79.70635 | 19971 ft | 261 kts | 224° |
| 2026-04-27 02:02 | 21.06679 | -79.71921 | 19972 ft | 261 kts | 224° |
| 2026-04-27 02:02 | 21.05318 | -79.73207 | 19972 ft | 261 kts | 224° |
| 2026-04-27 02:02 | 21.03956 | -79.74494 | 19973 ft | 261 kts | 224° |
| 2026-04-27 02:03 | 21.02593 | -79.75782 | 19969 ft | 261 kts | 224° |
| 2026-04-27 02:03 | 21.01232 | -79.77067 | 19972 ft | 261 kts | 224° |
| 2026-04-27 02:03 | 20.99869 | -79.78355 | 19970 ft | 261 kts | 224° |
| 2026-04-27 02:03 | 20.98507 | -79.79641 | 19970 ft | 261 kts | 224° |
| 2026-04-27 02:04 | 20.97145 | -79.80926 | 19969 ft | 261 kts | 224° |
| 2026-04-27 02:04 | 20.95783 | -79.82211 | 19971 ft | 261 kts | 224° |
| 2026-04-27 02:04 | 20.94420 | -79.83497 | 19969 ft | 261 kts | 224° |
| 2026-04-27 02:04 | 20.93058 | -79.84782 | 19975 ft | 261 kts | 224° |
| 2026-04-27 02:05 | 20.91695 | -79.86067 | 19973 ft | 261 kts | 224° |
| 2026-04-27 02:05 | 20.90329 | -79.87354 | 19973 ft | 261 kts | 224° |
| 2026-04-27 02:05 | 20.88966 | -79.88639 | 19971 ft | 261 kts | 224° |
| 2026-04-27 02:05 | 20.87601 | -79.89924 | 19970 ft | 261 kts | 224° |
| 2026-04-27 02:06 | 20.86236 | -79.91211 | 19971 ft | 261 kts | 224° |
| 2026-04-27 02:06 | 20.84871 | -79.92495 | 19970 ft | 261 kts | 224° |
| 2026-04-27 02:06 | 20.83507 | -79.93779 | 19971 ft | 262 kts | 224° |
| 2026-04-27 02:06 | 20.82142 | -79.95064 | 19973 ft | 262 kts | 224° |
| 2026-04-27 02:07 | 20.80777 | -79.96347 | 19968 ft | 262 kts | 224° |
| 2026-04-27 02:07 | 20.79409 | -79.97634 | 19970 ft | 262 kts | 224° |
| 2026-04-27 02:07 | 20.78044 | -79.98918 | 19970 ft | 262 kts | 224° |
| 2026-04-27 02:07 | 20.76679 | -80.00202 | 19969 ft | 262 kts | 224° |
| 2026-04-27 02:08 | 20.75311 | -80.01487 | 19972 ft | 262 kts | 224° |
| 2026-04-27 02:08 | 20.73943 | -80.02772 | 19970 ft | 262 kts | 224° |
| 2026-04-27 02:08 | 20.72575 | -80.04057 | 19972 ft | 262 kts | 224° |
| 2026-04-27 02:08 | 20.71227 | -80.05323 | 19972 ft | 262 kts | 224° |
| 2026-04-27 02:09 | 20.69841 | -80.06625 | 19974 ft | 262 kts | 224° |
| 2026-04-27 02:09 | 20.68473 | -80.07907 | 19974 ft | 262 kts | 224° |
| 2026-04-27 02:09 | 20.67102 | -80.09196 | 19973 ft | 262 kts | 224° |
| 2026-04-27 02:09 | 20.65752 | -80.10462 | 19971 ft | 262 kts | 224° |
| 2026-04-27 02:10 | 20.64384 | -80.11746 | 19969 ft | 262 kts | 224° |
| 2026-04-27 02:10 | 20.63013 | -80.13030 | 19971 ft | 262 kts | 224° |
| 2026-04-27 02:10 | 20.61640 | -80.14316 | 19968 ft | 262 kts | 224° |
| 2026-04-27 02:10 | 20.60273 | -80.15600 | 19968 ft | 262 kts | 224° |
| 2026-04-27 02:11 | 20.58901 | -80.16885 | 19972 ft | 262 kts | 224° |
| 2026-04-27 02:11 | 20.57532 | -80.18167 | 19971 ft | 262 kts | 224° |
| 2026-04-27 02:11 | 20.56161 | -80.19449 | 19970 ft | 262 kts | 224° |
| 2026-04-27 02:11 | 20.54791 | -80.20734 | 19971 ft | 262 kts | 224° |
| 2026-04-27 02:12 | 20.53420 | -80.22015 | 19973 ft | 262 kts | 224° |
| 2026-04-27 02:12 | 20.52045 | -80.23295 | 19974 ft | 262 kts | 224° |
| 2026-04-27 02:12 | 20.50670 | -80.24573 | 19974 ft | 262 kts | 225° |
| 2026-04-27 02:12 | 20.49305 | -80.25863 | 19974 ft | 262 kts | 224° |
| 2026-04-27 02:13 | 20.47930 | -80.27145 | 19974 ft | 262 kts | 224° |
| 2026-04-27 02:13 | 20.46559 | -80.28430 | 19974 ft | 262 kts | 224° |
| 2026-04-27 02:13 | 20.45205 | -80.29696 | 19975 ft | 263 kts | 224° |
| 2026-04-27 02:13 | 20.43831 | -80.30978 | 19970 ft | 262 kts | 224° |
| 2026-04-27 02:14 | 20.42439 | -80.32275 | 19969 ft | 262 kts | 225° |
| 2026-04-27 02:14 | 20.41066 | -80.33556 | 19973 ft | 262 kts | 224° |
| 2026-04-27 02:14 | 20.39690 | -80.34841 | 19972 ft | 263 kts | 224° |
| 2026-04-27 02:14 | 20.38317 | -80.36120 | 19972 ft | 263 kts | 224° |
| 2026-04-27 02:15 | 20.36941 | -80.37403 | 19972 ft | 263 kts | 224° |
| 2026-04-27 02:15 | 20.35567 | -80.38683 | 19970 ft | 263 kts | 224° |
| 2026-04-27 02:15 | 20.34208 | -80.39949 | 19975 ft | 263 kts | 224° |
| 2026-04-27 02:15 | 20.32832 | -80.41232 | 19972 ft | 263 kts | 224° |
| 2026-04-27 02:16 | 20.31456 | -80.42513 | 19976 ft | 263 kts | 224° |
| 2026-04-27 02:16 | 20.30082 | -80.43793 | 19975 ft | 263 kts | 224° |
| 2026-04-27 02:16 | 20.28705 | -80.45075 | 19972 ft | 263 kts | 224° |
| 2026-04-27 02:16 | 20.27328 | -80.46358 | 19973 ft | 263 kts | 224° |
| 2026-04-27 02:17 | 20.25952 | -80.47639 | 19974 ft | 263 kts | 224° |
| 2026-04-27 02:17 | 20.24573 | -80.48922 | 19979 ft | 263 kts | 224° |
| 2026-04-27 02:17 | 20.23197 | -80.50202 | 19978 ft | 263 kts | 224° |
| 2026-04-27 02:17 | 20.21819 | -80.51484 | 19975 ft | 263 kts | 224° |
| 2026-04-27 02:18 | 20.20443 | -80.52763 | 19975 ft | 263 kts | 224° |
| 2026-04-27 02:18 | 20.19063 | -80.54046 | 19975 ft | 263 kts | 224° |
| 2026-04-27 02:18 | 20.17685 | -80.55327 | 19977 ft | 263 kts | 224° |
| 2026-04-27 02:18 | 20.16306 | -80.56608 | 19973 ft | 263 kts | 224° |
| 2026-04-27 02:19 | 20.14927 | -80.57889 | 19972 ft | 263 kts | 224° |
| 2026-04-27 02:19 | 20.13546 | -80.59172 | 19973 ft | 263 kts | 224° |
| 2026-04-27 02:19 | 20.12166 | -80.60453 | 19973 ft | 263 kts | 224° |
| 2026-04-27 02:19 | 20.10785 | -80.61735 | 19974 ft | 263 kts | 224° |
| 2026-04-27 02:20 | 20.09406 | -80.63015 | 19974 ft | 263 kts | 224° |
| 2026-04-27 02:20 | 20.08025 | -80.64296 | 19974 ft | 263 kts | 224° |
| 2026-04-27 02:20 | 20.06644 | -80.65577 | 19974 ft | 263 kts | 224° |
| 2026-04-27 02:20 | 20.05263 | -80.66857 | 19971 ft | 264 kts | 224° |
| 2026-04-27 02:21 | 20.03882 | -80.68138 | 19974 ft | 264 kts | 224° |
| 2026-04-27 02:21 | 20.02517 | -80.69403 | 19974 ft | 264 kts | 224° |
| 2026-04-27 02:21 | 20.01134 | -80.70681 | 19972 ft | 264 kts | 224° |
| 2026-04-27 02:21 | 19.99730 | -80.71976 | 19977 ft | 264 kts | 224° |
| 2026-04-27 02:22 | 19.98370 | -80.73239 | 19976 ft | 264 kts | 224° |
| 2026-04-27 02:22 | 19.96986 | -80.74525 | 19977 ft | 264 kts | 224° |
| 2026-04-27 02:22 | 19.95603 | -80.75807 | 19976 ft | 264 kts | 224° |
| 2026-04-27 02:22 | 19.94219 | -80.77088 | 19973 ft | 264 kts | 224° |
| 2026-04-27 02:23 | 19.92834 | -80.78369 | 19976 ft | 264 kts | 224° |
| 2026-04-27 02:23 | 19.91450 | -80.79650 | 19975 ft | 264 kts | 224° |
| 2026-04-27 02:23 | 19.90067 | -80.80929 | 19977 ft | 264 kts | 224° |
| 2026-04-27 02:23 | 19.88681 | -80.82210 | 19973 ft | 264 kts | 224° |
| 2026-04-27 02:24 | 19.87299 | -80.83489 | 19976 ft | 264 kts | 224° |
| 2026-04-27 02:24 | 19.85919 | -80.84764 | 19977 ft | 261 kts | 224° |
| 2026-04-27 02:24 | 19.84545 | -80.86033 | 19828 ft | 266 kts | 224° |
| 2026-04-27 02:24 | 19.83120 | -80.87352 | 19603 ft | 276 kts | 224° |
| 2026-04-27 02:25 | 19.81654 | -80.88705 | 19366 ft | 281 kts | 224° |
| 2026-04-27 02:25 | 19.80169 | -80.90074 | 19136 ft | 286 kts | 223° |
| 2026-04-27 02:25 | 19.78652 | -80.91476 | 18890 ft | 292 kts | 223° |
| 2026-04-27 02:25 | 19.77101 | -80.92907 | 18613 ft | 298 kts | 223° |
| 2026-04-27 02:26 | 19.75526 | -80.94359 | 18310 ft | 300 kts | 223° |
| 2026-04-27 02:26 | 19.73959 | -80.95802 | 17952 ft | 297 kts | 223° |
| 2026-04-27 02:26 | 19.72411 | -80.97231 | 17593 ft | 294 kts | 223° |
| 2026-04-27 02:26 | 19.70871 | -80.98648 | 17241 ft | 292 kts | 223° |
| 2026-04-27 02:27 | 19.69334 | -81.00062 | 16889 ft | 291 kts | 223° |
| 2026-04-27 02:27 | 19.67805 | -81.01473 | 16539 ft | 291 kts | 223° |
| 2026-04-27 02:27 | 19.66278 | -81.02882 | 16199 ft | 291 kts | 223° |
| 2026-04-27 02:27 | 19.64750 | -81.04288 | 15857 ft | 291 kts | 223° |
| 2026-04-27 02:28 | 19.63240 | -81.05678 | 15527 ft | 291 kts | 223° |
| 2026-04-27 02:28 | 19.61708 | -81.07088 | 15193 ft | 292 kts | 223° |
| 2026-04-27 02:28 | 19.60175 | -81.08498 | 14868 ft | 292 kts | 223° |
| 2026-04-27 02:28 | 19.58639 | -81.09912 | 14547 ft | 293 kts | 223° |
| 2026-04-27 02:29 | 19.57099 | -81.11329 | 14225 ft | 292 kts | 223° |
| 2026-04-27 02:29 | 19.55570 | -81.12735 | 13909 ft | 289 kts | 223° |
| 2026-04-27 02:29 | 19.54061 | -81.14124 | 13561 ft | 286 kts | 223° |
| 2026-04-27 02:29 | 19.52562 | -81.15502 | 13208 ft | 284 kts | 223° |
| 2026-04-27 02:30 | 19.51074 | -81.16869 | 12854 ft | 283 kts | 222° |
| 2026-04-27 02:30 | 19.49584 | -81.18240 | 12500 ft | 283 kts | 222° |
| 2026-04-27 02:30 | 19.48098 | -81.19604 | 12153 ft | 282 kts | 222° |
| 2026-04-27 02:30 | 19.46614 | -81.20965 | 11810 ft | 282 kts | 222° |
| 2026-04-27 02:31 | 19.45133 | -81.22322 | 11492 ft | 281 kts | 222° |
| 2026-04-27 02:31 | 19.43660 | -81.23676 | 11205 ft | 279 kts | 222° |
| 2026-04-27 02:31 | 19.42197 | -81.25016 | 10920 ft | 278 kts | 221° |
| 2026-04-27 02:31 | 19.40737 | -81.26354 | 10635 ft | 277 kts | 222° |
| 2026-04-27 02:32 | 19.39773 | -81.27237 | 10451 ft | 276 kts | 222° |
| 2026-04-27 02:32 | 19.38324 | -81.28567 | 10171 ft | 276 kts | 221° |
| 2026-04-27 02:32 | 19.36871 | -81.29897 | 9896 ft | 275 kts | 221° |
| 2026-04-27 02:32 | 19.35425 | -81.31222 | 9592 ft | 275 kts | 221° |
| 2026-04-27 02:33 | 19.33983 | -81.32545 | 9305 ft | 274 kts | 221° |
| 2026-04-27 02:33 | 19.32545 | -81.33858 | 9029 ft | 272 kts | 221° |
| 2026-04-27 02:33 | 19.31116 | -81.35165 | 8760 ft | 270 kts | 221° |
| 2026-04-27 02:33 | 19.29958 | -81.36672 | 8500 ft | 264 kts | 248° |
| 2026-04-27 02:34 | 19.29588 | -81.38550 | 8248 ft | 261 kts | 268° |
| 2026-04-27 02:34 | 19.29654 | -81.40465 | 7958 ft | 260 kts | 280° |
| 2026-04-27 02:34 | 19.30032 | -81.42334 | 7689 ft | 259 kts | 287° |
| 2026-04-27 02:34 | 19.30529 | -81.44167 | 7421 ft | 259 kts | 289° |
| 2026-04-27 02:35 | 19.31033 | -81.45993 | 7160 ft | 258 kts | 288° |
| 2026-04-27 02:35 | 19.31511 | -81.47829 | 6904 ft | 258 kts | 286° |
| 2026-04-27 02:35 | 19.31954 | -81.49667 | 6616 ft | 259 kts | 286° |
| 2026-04-27 02:35 | 19.32395 | -81.51517 | 6374 ft | 258 kts | 285° |
| 2026-04-27 02:36 | 19.32835 | -81.53348 | 6126 ft | 254 kts | 285° |
| 2026-04-27 02:36 | 19.33268 | -81.55144 | 5882 ft | 250 kts | 285° |
| 2026-04-27 02:36 | 19.33677 | -81.56911 | 5635 ft | 244 kts | 282° |
| 2026-04-27 02:36 | 19.33512 | -81.58622 | 5389 ft | 226 kts | 245° |
| 2026-04-27 02:37 | 19.32538 | -81.59766 | 5146 ft | 203 kts | 209° |
| 2026-04-27 02:37 | 19.31301 | -81.60367 | 4904 ft | 193 kts | 199° |
| 2026-04-27 02:37 | 19.30048 | -81.60780 | 4680 ft | 183 kts | 194° |
| 2026-04-27 02:37 | 19.28842 | -81.61109 | 4439 ft | 178 kts | 192° |
| 2026-04-27 02:38 | 19.27632 | -81.61430 | 4188 ft | 179 kts | 193° |
| 2026-04-27 02:38 | 19.26421 | -81.61754 | 3942 ft | 180 kts | 193° |
| 2026-04-27 02:38 | 19.25213 | -81.62093 | 3694 ft | 180 kts | 193° |
| 2026-04-27 02:38 | 19.24011 | -81.62443 | 3452 ft | 178 kts | 194° |
| 2026-04-27 02:39 | 19.22847 | -81.62766 | 3212 ft | 169 kts | 188° |
| 2026-04-27 02:39 | 19.21761 | -81.62466 | 2961 ft | 164 kts | 139° |
| 2026-04-27 02:39 | 19.21315 | -81.61413 | 2710 ft | 161 kts | 88° |
| 2026-04-27 02:39 | 19.21757 | -81.60361 | 2465 ft | 157 kts | 55° |
| 2026-04-27 02:40 | 19.22367 | -81.59410 | 2225 ft | 153 kts | 57° |
| 2026-04-27 02:40 | 19.22911 | -81.58481 | 1980 ft | 145 kts | 59° |
| 2026-04-27 02:40 | 19.23387 | -81.57561 | 1740 ft | 141 kts | 62° |
| 2026-04-27 02:40 | 19.23830 | -81.56663 | 1623 ft | 134 kts | 64° |
| 2026-04-27 02:41 | 19.24213 | -81.55796 | 1564 ft | 127 kts | 67° |
| 2026-04-27 02:41 | 19.24542 | -81.54922 | 1549 ft | 129 kts | 70° |
| 2026-04-27 02:41 | 19.24834 | -81.54019 | 1537 ft | 130 kts | 71° |
| 2026-04-27 02:41 | 19.25109 | -81.53105 | 1508 ft | 130 kts | 73° |
| 2026-04-27 02:42 | 19.25361 | -81.52188 | 1499 ft | 129 kts | 74° |
| 2026-04-27 02:42 | 19.25595 | -81.51279 | 1500 ft | 127 kts | 75° |
| 2026-04-27 02:42 | 19.25820 | -81.50369 | 1503 ft | 129 kts | 75° |
| 2026-04-27 02:42 | 19.26041 | -81.49460 | 1512 ft | 130 kts | 76° |
| 2026-04-27 02:43 | 19.26267 | -81.48524 | 1508 ft | 131 kts | 76° |
| 2026-04-27 02:43 | 19.26490 | -81.47583 | 1498 ft | 132 kts | 75° |
| 2026-04-27 02:43 | 19.26714 | -81.46637 | 1492 ft | 132 kts | 76° |
| 2026-04-27 02:43 | 19.26932 | -81.45701 | 1493 ft | 130 kts | 76° |
| 2026-04-27 02:44 | 19.27146 | -81.44777 | 1488 ft | 129 kts | 76° |
| 2026-04-27 02:44 | 19.27366 | -81.43839 | 1314 ft | 129 kts | 76° |
| 2026-04-27 02:44 | 19.27567 | -81.42953 | 1128 ft | 121 kts | 76° |
| 2026-04-27 02:44 | 19.27771 | -81.42082 | 931 ft | 123 kts | 75° |
| 2026-04-27 02:45 | 19.27996 | -81.41199 | 776 ft | 124 kts | 75° |
| 2026-04-27 02:45 | 19.28213 | -81.40324 | 683 ft | 123 kts | 77° |
| 2026-04-27 02:45 | 19.28418 | -81.39454 | 600 ft | 123 kts | 77° |
| 2026-04-27 02:45 | 19.28630 | -81.38560 | 444 ft | 127 kts | 75° |
| 2026-04-27 02:46 | 19.28842 | -81.37643 | 240 ft | 131 kts | 75° |
| 2026-04-27 02:46 | 19.29064 | -81.36708 | 45 ft | 129 kts | 75° |
| 2026-04-27 02:46 | 19.29251 | -81.35900 | 12 ft | 96 kts | 77° |
| 2026-04-27 02:46 | 19.29323 | -81.35598 | 12 ft | 15 kts | 68° |
| 2026-04-27 02:47 | 19.29375 | -81.35568 | 11 ft | 0 kts | 352° |
| 2026-04-27 02:47 | 19.29376 | -81.35568 | 11 ft | 2 kts | 352° |
| 2026-04-27 02:48 | 19.29406 | -81.35574 | 11 ft | 6 kts | 347° |
| 2026-04-27 02:48 | 19.29457 | -81.35595 | 12 ft | 9 kts | 321° |
| 2026-04-27 02:48 | 19.29465 | -81.35667 | 12 ft | 12 kts | 257° |
| 2026-04-27 02:48 | 19.29444 | -81.35752 | 12 ft | 10 kts | 256° |
| 2026-04-27 02:49 | 19.29427 | -81.35818 | 12 ft | 10 kts | 255° |
| 2026-04-27 02:49 | 19.29457 | -81.35866 | 12 ft | 6 kts | 343° |
| 2026-04-27 02:49 | 19.29497 | -81.35877 | 12 ft | 4 kts | 346° |
| 2026-04-27 02:49 | 19.29500 | -81.35878 | 12 ft | 0 kts | 346° |